Airfield :
LOGIN :

Register | Disclaimer

   EN    FR    IT 

 










Legend :    VFR   Marginal VFR   IFR   Intensive IFR   Very Intensive IFR
Visi :
Ceiling :
>= 8 km
>= 3000ft
5 to 8 km
1000 to 3000 ft
1500m to 5 km
500 to 1000 ft
800 to 1500m
200 to 500 ft
< 800m
< 200 ft
Symbols :   Thunderstorms  Fog  Heavy snow  Heavy precipitations  Wind > 20 kt
SIGMETs :     Misc.  Thunderstorms  Icing  Turbulence  Mountain Waves  Volcanic Ashes







- Airport Elevation : 1367 ft
- IATA code : FDH


EDNY - Friedrichshafen

CURRENT METAR :
  • 180020Z AUTO 23007KT 9999 OVC048 00/M02 Q1026

EXPIRED METARs :
  • 172350Z AUTO 27004KT 230V320 9999 FEW017 OVC049 00/M02 Q1026
  • 172320Z AUTO VRB02KT 9999 FEW016 OVC050 M01/M02 Q1027
  • 172250Z AUTO VRB01KT 9999 FEW046 OVC052 M01/M02 Q1027
  • 172220Z AUTO 28004KT 250V310 9999 FEW015 BKN057 M00/M03 Q1027
  • 172150Z AUTO VRB03KT 9999 FEW017 M01/M03 Q1027

TAF TAF EDNY
Valid from the 18 at 00:00 until the 19 at 00:00 UTC


172300Z 1800/1824 VRB03KT 9999 FEW015 BKN030
BECMG 1805/1807 4000 -SN BKN012
TEMPO 1808/1813 1200 SN VV004
BECMG 1815/1817 6000 BKN015
BECMG 1818/1820 3000 BR
No reported NOTAMs for that airfield.



MET'MAP, your aeronautical weather chart ! - Copyright ORBIFLY December 2007 - Disclaimer

ORBIFLY MET'MAP TEAM :

Programming & Development : Alexandra Zaïnal
Concept & Development : Baudouin d'Aumeries
Co-Development & Prog : Marc-Olivier Méhu
Technical & hardware support : Manuel Goepfert

Contact : metmap@orbifly.com




SOURCES & CREDITS :

   NOAA